Jean Anne — WDC3786 — position and weather

sailwx.info

Track history (hours):
 
Tides and Currents Weather Stations Pressure Air Temp Water Temp Dewpoint Dewpoint Depression Visibility Wind Speed Wind Dir Waves Ship Positions

Jean Anne

Owner: PASHA HAWAII TRANSPORT LINES LLC, National City, CA. More information available from US FCC via Universal Licensing System and Coast Guard Vessel Documentation Center.

Last reported at 2018-Jun-23 12:00 UTC. Time now 2018-Jun-23 17:31 UTC.
Position N 25°12' W 141°48'.

Type: Cargo ship. MMSI: 367003380.

Wind from 070 at 23 knots

Barometer 1020.9 mb
Air temperature 20.9 ° C
Visibility: greater than 10.8 NM
Dewpoint 16.1 ° C

Date/timePositionNaut miles runAvg speedWind from/ knotsBaromVisibWave heightAir tempDewpointWater temp
2018-Jun-23 12:00N 25°12' W 141°48'45518.9 070 / 231020.910.8 20.916.1
2018-Jun-22 12:00N 22°12' W 149°24'   100 / 251018.4 23.017.9
2018-Jun-18 12:00N 22°54' W 153°06'44918.7 040 / 71017.410.8 21.917.2
2018-Jun-17 12:00N 25°30' W 145°24'35019.5 060 / 91017.910.8 20.014.9
2018-Jun-16 18:00N 27°18' W 139°12'11619.3 080 / 121019.010.8 21.014.2
2018-Jun-16 12:00N 27°48' W 137°06'45418.9 090 / 101019.310.8 18.010.6
2018-Jun-15 12:00N 29°30' W 128°42'20818.8 020 / 201016.910.8 15.511.8
2018-Jun-15 00:56N 30°06' W 124°47'13518.5
2018-Jun-14 17:39N 30°25' W 122°12'318.5
2018-Jun-14 17:30N 30°26' W 122°09'7318.7
2018-Jun-14 13:37N 30°39' W 120°46'218.3
2018-Jun-14 13:30N 30°40' W 120°44'918.4
2018-Jun-14 13:00N 30°41' W 120°34'7118.2
2018-Jun-14 09:06N 30°56' W 119°13'217.6
2018-Jun-14 08:58N 30°57' W 119°10'917.5
2018-Jun-14 08:29N 30°58' W 119°00'917.3
2018-Jun-14 07:58N 31°00' W 118°50'817.5
2018-Jun-14 07:30N 31°02' W 118°41'816.6
2018-Jun-14 07:00N 31°06' W 118°33'1318.2
2018-Jun-14 06:18N 31°16' W 118°24'2418.8
2018-Jun-14 05:01N 31°36' W 118°07'018.4
2018-Jun-14 05:00N 31°36' W 118°07'1519.1
2018-Jun-14 04:13N 31°48' W 117°57'1219.1
2018-Jun-14 03:36N 31°58' W 117°49'319.0
2018-Jun-14 03:28N 31°60' W 117°47'919.1
2018-Jun-14 02:59N 32°07' W 117°40'918.6
2018-Jun-14 02:30N 32°14' W 117°34'1014.9
2018-Jun-14 01:50N 32°22' W 117°27'614.5
2018-Jun-14 01:23N 32°28' W 117°23'714.5
2018-Jun-14 00:54N 32°33' W 117°18'615.8
2018-Jun-14 00:31N 32°39' W 117°14'5 9.3
2018-Jun-14 00:00N 32°43' W 117°12'6 9.3
2018-Jun-13 23:23N 32°39' W 117°07'0 0.8
2018-Jun-13 23:00N 32°39' W 117°07'0 0.0
2018-Jun-13 22:30N 32°39' W 117°07'0 0.0
2018-Jun-13 22:01N 32°39' W 117°07'0 0.0
2018-Jun-13 19:46N 32°39' W 117°07'0 0.0
2018-Jun-13 19:25N 32°39' W 117°07'0 0.0
2018-Jun-13 18:57N 32°39' W 117°07'0 0.0
2018-Jun-13 18:25N 32°39' W 117°07'0 0.0
2018-Jun-13 18:00N 32°39' W 117°07'0 0.0
2018-Jun-13 17:30N 32°39' W 117°07'0 0.0
2018-Jun-13 17:00N 32°39' W 117°07'0 0.0
2018-Jun-13 16:30N 32°39' W 117°07'0 0.0
2018-Jun-13 16:00N 32°39' W 117°07'0 0.0
2018-Jun-13 15:30N 32°39' W 117°07'0 0.0
2018-Jun-13 15:00N 32°39' W 117°07'0 0.0
2018-Jun-13 14:12N 32°39' W 117°07'0 0.0
2018-Jun-13 13:30N 32°39' W 117°07'0 0.0
2018-Jun-13 13:00N 32°39' W 117°07'0 0.0
2018-Jun-13 12:30N 32°39' W 117°07'0 0.0
2018-Jun-13 12:00N 32°39' W 117°07'  
Track history (hours):
 
Tides and Currents Weather Stations Pressure Air Temp Water Temp Dewpoint Dewpoint Depression Visibility Wind Speed Wind Dir Waves Ship Positions

Jean Anne

Owner: PASHA HAWAII TRANSPORT LINES LLC, National City, CA. More information available from US FCC via Universal Licensing System and Coast Guard Vessel Documentation Center.

Last reported at 2018-Jun-23 12:00 UTC. Time now 2018-Jun-23 17:31 UTC.
Position N 25°12' W 141°48'.

Type: Cargo ship. MMSI: 367003380.

Wind from 070 at 23 knots

Barometer 1020.9 mb
Air temperature 20.9 ° C
Visibility: greater than 10.8 NM
Dewpoint 16.1 ° C

Date/timePositionNaut miles runAvg speedWind from/ knotsBaromVisibWave heightAir tempDewpointWater temp
2018-Jun-23 12:00N 25°12' W 141°48'45518.9 070 / 231020.910.8 20.916.1
2018-Jun-22 12:00N 22°12' W 149°24'   100 / 251018.4 23.017.9
2018-Jun-18 12:00N 22°54' W 153°06'44918.7 040 / 71017.410.8 21.917.2
2018-Jun-17 12:00N 25°30' W 145°24'35019.5 060 / 91017.910.8 20.014.9
2018-Jun-16 18:00N 27°18' W 139°12'11619.3 080 / 121019.010.8 21.014.2
2018-Jun-16 12:00N 27°48' W 137°06'45418.9 090 / 101019.310.8 18.010.6
2018-Jun-15 12:00N 29°30' W 128°42'20818.8 020 / 201016.910.8 15.511.8
2018-Jun-15 00:56N 30°06' W 124°47'13518.5
2018-Jun-14 17:39N 30°25' W 122°12'318.5
2018-Jun-14 17:30N 30°26' W 122°09'7318.7
2018-Jun-14 13:37N 30°39' W 120°46'218.3
2018-Jun-14 13:30N 30°40' W 120°44'918.4
2018-Jun-14 13:00N 30°41' W 120°34'7118.2
2018-Jun-14 09:06N 30°56' W 119°13'217.6
2018-Jun-14 08:58N 30°57' W 119°10'917.5
2018-Jun-14 08:29N 30°58' W 119°00'917.3
2018-Jun-14 07:58N 31°00' W 118°50'817.5
2018-Jun-14 07:30N 31°02' W 118°41'816.6
2018-Jun-14 07:00N 31°06' W 118°33'1318.2
2018-Jun-14 06:18N 31°16' W 118°24'2418.8
2018-Jun-14 05:01N 31°36' W 118°07'018.4
2018-Jun-14 05:00N 31°36' W 118°07'1519.1
2018-Jun-14 04:13N 31°48' W 117°57'1219.1
2018-Jun-14 03:36N 31°58' W 117°49'319.0
2018-Jun-14 03:28N 31°60' W 117°47'919.1
2018-Jun-14 02:59N 32°07' W 117°40'918.6
2018-Jun-14 02:30N 32°14' W 117°34'1014.9
2018-Jun-14 01:50N 32°22' W 117°27'614.5
2018-Jun-14 01:23N 32°28' W 117°23'714.5
2018-Jun-14 00:54N 32°33' W 117°18'615.8
2018-Jun-14 00:31N 32°39' W 117°14'5 9.3
2018-Jun-14 00:00N 32°43' W 117°12'6 9.3
2018-Jun-13 23:23N 32°39' W 117°07'0 0.8
2018-Jun-13 23:00N 32°39' W 117°07'0 0.0
2018-Jun-13 22:30N 32°39' W 117°07'0 0.0
2018-Jun-13 22:01N 32°39' W 117°07'0 0.0
2018-Jun-13 19:46N 32°39' W 117°07'0 0.0
2018-Jun-13 19:25N 32°39' W 117°07'0 0.0
2018-Jun-13 18:57N 32°39' W 117°07'0 0.0
2018-Jun-13 18:25N 32°39' W 117°07'0 0.0
2018-Jun-13 18:00N 32°39' W 117°07'0 0.0
2018-Jun-13 17:30N 32°39' W 117°07'0 0.0
2018-Jun-13 17:00N 32°39' W 117°07'0 0.0
2018-Jun-13 16:30N 32°39' W 117°07'0 0.0
2018-Jun-13 16:00N 32°39' W 117°07'0 0.0
2018-Jun-13 15:30N 32°39' W 117°07'0 0.0
2018-Jun-13 15:00N 32°39' W 117°07'0 0.0
2018-Jun-13 14:12N 32°39' W 117°07'0 0.0
2018-Jun-13 13:30N 32°39' W 117°07'0 0.0
2018-Jun-13 13:00N 32°39' W 117°07'0 0.0
2018-Jun-13 12:30N 32°39' W 117°07'0 0.0
2018-Jun-13 12:00N 32°39' W 117°07'  

Dump ship's entire track history